createdAt,value
2017-12-26T00:00:01.499Z,3.10
2017-12-26T00:02:30.791Z,4.37
2017-12-26T00:04:59.637Z,4.17
2017-12-26T00:07:28.533Z,4.00
2017-12-26T00:09:57.393Z,4.43
2017-12-26T00:12:26.265Z,4.33
2017-12-26T00:14:55.169Z,3.87
2017-12-26T00:17:24.055Z,4.63
2017-12-26T00:19:52.995Z,3.27
2017-12-26T00:22:21.973Z,3.83
2017-12-26T00:24:51.759Z,3.53
2017-12-26T00:27:21.253Z,4.20
2017-12-26T00:29:50.099Z,4.37
2017-12-26T00:32:18.972Z,3.90
2017-12-26T00:34:48.463Z,4.60
2017-12-26T00:37:17.310Z,4.50
2017-12-26T00:39:46.523Z,4.50
2017-12-26T00:42:15.366Z,4.37
2017-12-26T00:44:44.213Z,3.97
2017-12-26T00:47:13.067Z,4.53
2017-12-26T00:49:41.920Z,4.57
2017-12-26T00:52:10.747Z,5.10
2017-12-26T00:54:39.603Z,4.37
2017-12-26T00:57:08.449Z,4.47
2017-12-26T00:59:37.313Z,5.10
2017-12-26T01:02:06.165Z,4.80
2017-12-26T01:04:35.027Z,4.73
2017-12-26T01:07:03.931Z,4.20
2017-12-26T01:09:32.775Z,3.63
2017-12-26T01:12:02.335Z,4.70
2017-12-26T01:14:31.449Z,5.03
2017-12-26T01:17:00.287Z,4.77
2017-12-26T01:19:29.118Z,4.90
2017-12-26T01:21:57.997Z,4.60
2017-12-26T01:24:26.830Z,5.23
2017-12-26T01:26:55.663Z,4.67
2017-12-26T01:29:24.542Z,5.40
2017-12-26T01:31:53.393Z,6.00
2017-12-26T01:34:22.283Z,5.80
2017-12-26T01:36:51.151Z,5.07
2017-12-26T01:39:20.045Z,5.63
2017-12-26T01:41:48.955Z,6.27
2017-12-26T01:44:17.817Z,5.70
2017-12-26T01:46:46.657Z,5.83
2017-12-26T01:49:15.489Z,6.30
2017-12-26T01:51:45.278Z,6.00
2017-12-26T01:54:14.117Z,5.93
2017-12-26T01:56:43.823Z,4.93
2017-12-26T01:59:12.663Z,5.90
2017-12-26T02:01:41.491Z,5.57
2017-12-26T02:04:10.365Z,6.70
2017-12-26T02:06:39.223Z,6.50
2017-12-26T02:09:08.059Z,6.60
2017-12-26T02:11:37.663Z,5.83
2017-12-26T02:14:06.498Z,4.40
2017-12-26T02:16:35.861Z,6.40
2017-12-26T02:19:04.727Z,6.83
2017-12-26T02:21:33.617Z,6.17
2017-12-26T02:24:02.505Z,6.10
2017-12-26T02:26:31.343Z,6.77
2017-12-26T02:29:00.179Z,4.40
2017-12-26T02:31:29.071Z,3.80
2017-12-26T02:33:57.941Z,6.43
2017-12-26T02:36:26.772Z,4.57
2017-12-26T02:38:55.653Z,6.27
2017-12-26T02:41:24.573Z,6.77
2017-12-26T02:43:53.433Z,6.90
2017-12-26T02:46:22.331Z,6.10
2017-12-26T02:48:51.246Z,5.27
2017-12-26T02:51:20.085Z,6.17
2017-12-26T02:53:49.837Z,5.20
2017-12-26T02:56:18.701Z,6.57
2017-12-26T02:58:47.541Z,5.27
2017-12-26T03:01:16.405Z,7.00
2017-12-26T03:03:45.253Z,6.10
2017-12-26T03:06:14.115Z,7.33
2017-12-26T03:08:42.989Z,7.30
2017-12-26T03:11:11.811Z,5.77
2017-12-26T03:13:40.645Z,5.27
2017-12-26T03:16:09.529Z,6.23
2017-12-26T03:18:38.379Z,6.80
2017-12-26T03:21:07.211Z,6.37
2017-12-26T03:23:36.111Z,4.67
2017-12-26T03:26:05.029Z,6.07
2017-12-26T03:28:33.857Z,5.33
2017-12-26T03:31:02.742Z,6.40
2017-12-26T03:33:31.597Z,6.40
2017-12-26T03:36:00.455Z,4.33
2017-12-26T03:38:29.338Z,5.00
2017-12-26T03:41:01.559Z,6.10
2017-12-26T03:43:30.413Z,5.23
2017-12-26T03:46:00.098Z,5.80
2017-12-26T03:48:29.566Z,5.80
2017-12-26T03:50:58.425Z,5.13
2017-12-26T03:53:27.265Z,6.07
2017-12-26T03:55:56.117Z,6.23
2017-12-26T03:58:25.015Z,5.67
2017-12-26T04:00:54.435Z,5.80
2017-12-26T04:03:23.271Z,5.60
2017-12-26T04:05:52.126Z,4.10
2017-12-26T04:08:20.980Z,4.90
2017-12-26T04:10:49.843Z,4.67
2017-12-26T04:13:18.699Z,4.53
2017-12-26T04:15:47.920Z,4.93
2017-12-26T04:18:16.777Z,5.30
2017-12-26T04:20:46.399Z,4.60
2017-12-26T04:23:16.119Z,4.50
2017-12-26T04:25:45.032Z,5.40
2017-12-26T04:28:13.875Z,5.10
2017-12-26T04:30:42.724Z,5.57
2017-12-26T04:33:11.607Z,5.33
2017-12-26T04:35:40.467Z,5.13
2017-12-26T04:38:09.315Z,4.77
2017-12-26T04:40:39.145Z,5.17
2017-12-26T04:43:07.979Z,5.63
2017-12-26T04:45:36.817Z,5.93
2017-12-26T04:48:06.019Z,4.67
2017-12-26T04:50:34.859Z,6.47
2017-12-26T04:53:03.711Z,5.43
2017-12-26T04:55:32.587Z,4.77
2017-12-26T04:58:01.429Z,4.93
2017-12-26T05:00:30.326Z,5.90
2017-12-26T05:02:59.154Z,5.60
2017-12-26T05:05:27.990Z,6.13
2017-12-26T05:07:56.826Z,5.70
2017-12-26T05:10:25.717Z,4.43
2017-12-26T05:12:54.547Z,5.10
2017-12-26T05:15:24.533Z,4.27
2017-12-26T05:17:53.424Z,5.33
2017-12-26T05:20:22.275Z,5.17
2017-12-26T05:22:51.796Z,4.80
2017-12-26T05:25:21.339Z,4.53
2017-12-26T05:27:50.171Z,5.60
2017-12-26T05:30:19.831Z,4.93
2017-12-26T05:32:48.744Z,4.93
2017-12-26T05:35:17.619Z,4.90
2017-12-26T05:37:46.494Z,5.00
2017-12-26T05:40:15.383Z,4.87
2017-12-26T05:42:44.202Z,4.67
2017-12-26T05:45:13.043Z,3.37
2017-12-26T05:47:41.909Z,4.90
2017-12-26T05:50:10.745Z,4.67
2017-12-26T05:52:39.581Z,4.73
2017-12-26T05:55:08.441Z,4.20
2017-12-26T05:57:38.034Z,4.73
2017-12-26T06:00:06.870Z,4.73
2017-12-26T06:02:35.735Z,4.97
2017-12-26T06:05:04.577Z,4.37
2017-12-26T06:07:33.421Z,5.07
2017-12-26T06:10:02.318Z,4.60
2017-12-26T06:12:31.871Z,4.77
2017-12-26T06:15:00.731Z,4.77
2017-12-26T06:17:29.639Z,4.77
2017-12-26T06:19:58.473Z,4.47
2017-12-26T06:22:27.323Z,4.47
2017-12-26T06:24:56.187Z,4.60
2017-12-26T06:27:25.017Z,4.50
2017-12-26T06:29:53.859Z,5.43
2017-12-26T06:32:22.751Z,4.77
2017-12-26T06:34:51.588Z,4.27
2017-12-26T06:37:20.424Z,3.83
2017-12-26T06:39:49.299Z,3.77
2017-12-26T06:42:18.157Z,3.80
2017-12-26T06:44:47.723Z,2.43
2017-12-26T06:47:16.596Z,3.67
2017-12-26T06:49:45.433Z,3.33
2017-12-26T06:52:14.499Z,3.03
2017-12-26T06:54:43.405Z,3.70
2017-12-26T06:57:12.241Z,4.17
2017-12-26T06:59:41.389Z,3.40
2017-12-26T07:02:10.229Z,3.90
2017-12-26T07:04:39.063Z,3.80
2017-12-26T07:07:07.921Z,3.97
2017-12-26T07:09:36.779Z,4.30
2017-12-26T07:12:05.657Z,4.57
2017-12-26T07:14:35.262Z,4.03
2017-12-26T07:17:04.393Z,3.50
2017-12-26T07:19:39.181Z,3.67
2017-12-26T07:22:24.705Z,3.37
2017-12-26T07:24:53.575Z,4.53
2017-12-26T07:27:22.407Z,3.70
2017-12-26T07:29:51.258Z,3.87
2017-12-26T07:32:20.149Z,4.27
2017-12-26T07:34:49.003Z,4.00
2017-12-26T07:37:17.839Z,4.37
2017-12-26T07:39:46.702Z,4.73
2017-12-26T07:42:15.879Z,5.07
2017-12-26T07:44:44.711Z,4.20
2017-12-26T07:47:13.567Z,3.87
2017-12-26T07:49:42.415Z,8.30
2017-12-26T07:52:11.495Z,3.47
2017-12-26T07:54:41.275Z,4.60
2017-12-26T07:57:10.111Z,4.20
2017-12-26T07:59:39.610Z,3.50
2017-12-26T08:02:09.321Z,3.60
2017-12-26T08:04:38.205Z,4.63
2017-12-26T08:07:07.048Z,3.70
2017-12-26T08:09:36.179Z,4.80
2017-12-26T08:12:05.067Z,3.50
2017-12-26T08:14:33.895Z,4.70
2017-12-26T08:17:03.121Z,2.73
2017-12-26T08:19:31.979Z,3.33
2017-12-26T08:22:00.826Z,3.10
2017-12-26T08:24:30.322Z,3.20
2017-12-26T08:27:00.004Z,3.50
2017-12-26T08:29:28.964Z,3.43
2017-12-26T08:31:58.297Z,3.23
2017-12-26T08:34:27.151Z,3.17
2017-12-26T08:36:56.879Z,3.40
2017-12-26T08:39:25.737Z,3.20
2017-12-26T08:41:54.577Z,3.10
2017-12-26T08:44:23.683Z,4.30
2017-12-26T08:46:52.507Z,4.10
2017-12-26T08:49:21.532Z,3.27
2017-12-26T08:51:51.192Z,4.13
2017-12-26T08:54:20.061Z,3.57
2017-12-26T08:56:48.899Z,4.27
2017-12-26T08:59:17.854Z,3.77
2017-12-26T09:01:46.709Z,4.10
2017-12-26T09:04:15.549Z,4.43
2017-12-26T09:06:44.718Z,7.03
2017-12-26T09:09:13.615Z,3.70
2017-12-26T09:11:42.453Z,3.67
2017-12-26T09:14:11.733Z,4.80
2017-12-26T09:16:40.568Z,4.87
2017-12-26T09:19:09.438Z,3.87
2017-12-26T09:21:38.309Z,6.77
2017-12-26T09:24:07.183Z,8.60
2017-12-26T09:26:36.042Z,3.40
2017-12-26T09:29:04.911Z,3.90
2017-12-26T09:31:33.783Z,6.13
2017-12-26T09:34:03.479Z,4.07
2017-12-26T09:36:32.383Z,2.77
2017-12-26T09:39:01.315Z,4.20
2017-12-26T09:41:30.163Z,5.30
2017-12-26T09:43:59.047Z,3.30
2017-12-26T09:46:28.068Z,3.87
2017-12-26T09:48:57.514Z,6.67
2017-12-26T09:51:27.633Z,3.40
2017-12-26T09:53:57.891Z,3.73
2017-12-26T09:56:28.259Z,3.03
2017-12-26T09:58:58.023Z,3.20
2017-12-26T10:01:28.959Z,3.43
2017-12-26T10:03:59.565Z,3.30
2017-12-26T10:06:28.989Z,3.53
2017-12-26T10:08:58.684Z,4.03
2017-12-26T10:11:27.766Z,4.43
2017-12-26T10:13:56.870Z,3.80
2017-12-26T10:16:25.706Z,3.70
2017-12-26T10:18:54.643Z,3.37
2017-12-26T10:21:23.526Z,3.77
2017-12-26T10:23:52.403Z,3.77
2017-12-26T10:26:21.247Z,3.60
2017-12-26T10:28:50.899Z,3.10
2017-12-26T10:31:20.695Z,2.73
2017-12-26T10:33:50.734Z,2.87
2017-12-26T10:36:21.445Z,3.53
2017-12-26T10:38:50.661Z,2.97
2017-12-26T10:41:20.325Z,3.73
2017-12-26T10:43:49.226Z,2.60
2017-12-26T10:46:19.063Z,3.13
2017-12-26T10:48:47.965Z,3.60
2017-12-26T10:51:16.827Z,2.70
2017-12-26T10:53:45.711Z,2.87
2017-12-26T10:56:14.603Z,7.20
2017-12-26T10:58:43.457Z,3.33
2017-12-26T11:01:12.851Z,3.33
2017-12-26T11:03:42.367Z,2.90
2017-12-26T11:06:11.697Z,3.93
2017-12-26T11:08:40.547Z,2.50
2017-12-26T11:11:09.472Z,2.70
2017-12-26T11:13:38.343Z,2.80
2017-12-26T11:16:07.195Z,2.83
2017-12-26T11:18:36.109Z,2.83
2017-12-26T11:21:04.955Z,2.10
2017-12-26T11:23:34.019Z,2.10
2017-12-26T11:26:03.482Z,2.13
2017-12-26T11:28:32.987Z,2.60
2017-12-26T11:31:02.315Z,2.37
2017-12-26T11:33:31.349Z,2.73
2017-12-26T11:36:00.199Z,4.40
2017-12-26T11:38:29.095Z,4.33
2017-12-26T11:40:57.985Z,3.20
2017-12-26T11:43:26.831Z,2.50
2017-12-26T11:45:55.667Z,2.37
2017-12-26T11:48:25.746Z,2.10
2017-12-26T11:50:55.309Z,2.70
2017-12-26T11:53:24.190Z,3.00
2017-12-26T11:55:53.071Z,3.53
2017-12-26T11:58:21.917Z,2.97
2017-12-26T12:00:51.649Z,2.40
2017-12-26T12:03:21.036Z,1.50
2017-12-26T12:05:50.665Z,3.47
2017-12-26T12:08:19.683Z,2.13
2017-12-26T12:10:48.809Z,3.13
2017-12-26T12:13:17.641Z,3.50
2017-12-26T12:15:46.485Z,3.33
2017-12-26T12:18:15.417Z,2.00
2017-12-26T12:20:44.257Z,2.53
2017-12-26T12:23:13.157Z,1.70
2017-12-26T12:25:42.025Z,1.97
2017-12-26T12:28:11.623Z,2.13
2017-12-26T12:30:40.909Z,1.90
2017-12-26T12:33:10.580Z,1.70
2017-12-26T12:35:39.773Z,1.90
2017-12-26T12:38:08.904Z,2.00
2017-12-26T12:40:38.555Z,1.77
2017-12-26T12:43:07.460Z,1.80
2017-12-26T12:45:37.327Z,2.07
2017-12-26T12:48:06.249Z,1.50
2017-12-26T12:50:35.109Z,1.30
2017-12-26T12:53:04.234Z,2.20
2017-12-26T12:55:33.149Z,2.00
2017-12-26T12:58:02.117Z,1.90
2017-12-26T13:00:31.742Z,1.87
2017-12-26T13:03:01.509Z,2.27
2017-12-26T13:05:31.625Z,1.60
2017-12-26T13:08:00.478Z,1.90
2017-12-26T13:10:29.324Z,3.10
2017-12-26T13:12:58.189Z,2.10
2017-12-26T13:15:27.037Z,2.60
2017-12-26T13:17:55.885Z,2.50
2017-12-26T13:20:24.818Z,2.47
2017-12-26T13:22:53.971Z,1.90
2017-12-26T13:25:23.059Z,2.20
2017-12-26T13:27:52.019Z,2.73
2017-12-26T13:30:20.863Z,2.70
2017-12-26T13:32:49.977Z,2.90
2017-12-26T13:35:19.653Z,2.30
2017-12-26T13:37:48.524Z,2.70
2017-12-26T13:40:17.763Z,5.30
2017-12-26T13:42:46.690Z,2.87
2017-12-26T13:45:15.817Z,2.27
2017-12-26T13:47:45.283Z,2.40
2017-12-26T13:50:14.407Z,2.80
2017-12-26T13:52:43.491Z,2.17
2017-12-26T13:55:12.405Z,2.77
2017-12-26T13:57:41.265Z,2.47
2017-12-26T14:00:10.129Z,2.97
2017-12-26T14:02:39.007Z,2.40
2017-12-26T14:05:07.891Z,2.70
2017-12-26T14:07:37.319Z,2.57
2017-12-26T14:10:07.000Z,2.77
2017-12-26T14:12:36.467Z,2.70
2017-12-26T14:15:05.317Z,2.50
2017-12-26T14:17:34.969Z,2.63
2017-12-26T14:20:04.692Z,2.80
2017-12-26T14:22:33.576Z,3.27
2017-12-26T14:25:02.721Z,3.10
2017-12-26T14:27:31.566Z,3.37
2017-12-26T14:30:01.301Z,2.43
2017-12-26T14:32:30.147Z,3.50
2017-12-26T14:34:58.999Z,3.40
2017-12-26T14:37:27.859Z,3.70
2017-12-26T14:39:56.819Z,2.40
2017-12-26T14:42:25.659Z,2.80
2017-12-26T14:44:54.819Z,2.50
2017-12-26T14:47:23.681Z,2.63
2017-12-26T14:49:52.539Z,2.43
2017-12-26T14:52:21.427Z,2.40
2017-12-26T14:54:50.296Z,2.70
2017-12-26T14:57:20.159Z,2.20
2017-12-26T14:59:48.989Z,2.30
2017-12-26T15:02:17.871Z,2.87
2017-12-26T15:04:46.707Z,2.70
2017-12-26T15:07:15.551Z,2.50
2017-12-26T15:09:44.486Z,2.27
2017-12-26T15:12:13.975Z,2.17
2017-12-26T15:14:42.818Z,2.30
2017-12-26T15:17:11.697Z,2.57
2017-12-26T15:19:40.531Z,2.73
2017-12-26T15:22:09.377Z,2.93
2017-12-26T15:24:38.235Z,2.70
2017-12-26T15:27:07.135Z,2.23
2017-12-26T15:29:35.975Z,2.27
2017-12-26T15:32:04.894Z,2.70
2017-12-26T15:34:33.737Z,2.20
2017-12-26T15:37:02.591Z,2.30
2017-12-26T15:39:31.537Z,2.60
2017-12-26T15:42:00.370Z,2.80
2017-12-26T15:44:29.958Z,2.80
2017-12-26T15:46:58.847Z,2.80
2017-12-26T15:49:27.743Z,2.63
2017-12-26T15:51:56.598Z,2.50
2017-12-26T15:54:25.509Z,3.23
2017-12-26T15:56:54.348Z,3.10
2017-12-26T15:59:23.189Z,2.43
2017-12-26T16:01:52.865Z,2.23
2017-12-26T16:04:21.703Z,2.90
2017-12-26T16:06:50.549Z,2.70
2017-12-26T16:09:19.452Z,2.93
2017-12-26T16:11:48.293Z,2.40
2017-12-26T16:14:17.172Z,3.07
2017-12-26T16:16:46.029Z,2.70
2017-12-26T16:19:14.891Z,3.03
2017-12-26T16:21:43.729Z,2.77
2017-12-26T16:24:12.611Z,3.03
2017-12-26T16:26:41.495Z,2.87
2017-12-26T16:29:10.643Z,2.43
2017-12-26T16:31:39.555Z,2.50
2017-12-26T16:34:08.391Z,2.90
2017-12-26T16:36:37.365Z,3.20
2017-12-26T16:39:06.262Z,3.37
2017-12-26T16:41:35.135Z,3.03
2017-12-26T16:44:03.985Z,2.30
2017-12-26T16:46:32.861Z,2.97
2017-12-26T16:49:01.713Z,2.90
2017-12-26T16:51:30.551Z,2.77
2017-12-26T16:53:59.452Z,3.00
2017-12-26T16:56:28.297Z,2.83
2017-12-26T16:58:57.171Z,2.20
2017-12-26T17:01:26.037Z,2.40
2017-12-26T17:03:54.892Z,2.03
2017-12-26T17:06:23.730Z,2.53
2017-12-26T17:08:52.621Z,2.97
2017-12-26T17:11:21.509Z,2.43
2017-12-26T17:13:50.344Z,2.20
2017-12-26T17:16:19.229Z,2.50
2017-12-26T17:18:48.059Z,2.70
2017-12-26T17:21:16.943Z,2.50
2017-12-26T17:23:45.847Z,2.50
2017-12-26T17:26:14.685Z,2.20
2017-12-26T17:28:43.518Z,2.57
2017-12-26T17:31:12.380Z,2.40
2017-12-26T17:33:41.293Z,2.57
2017-12-26T17:36:10.155Z,2.47
2017-12-26T17:38:39.157Z,2.23
2017-12-26T17:41:07.992Z,2.97
2017-12-26T17:43:37.671Z,2.70
2017-12-26T17:46:06.547Z,2.80
2017-12-26T17:48:35.381Z,2.77
2017-12-26T17:51:04.250Z,2.87
2017-12-26T17:53:33.161Z,2.80
2017-12-26T17:56:02.012Z,2.90
2017-12-26T17:58:30.863Z,3.47
2017-12-26T18:00:59.725Z,2.50
2017-12-26T18:03:28.567Z,2.03
2017-12-26T18:05:57.404Z,3.23
2017-12-26T18:08:26.769Z,2.73
2017-12-26T18:10:55.593Z,2.83
2017-12-26T18:13:24.451Z,2.70
2017-12-26T18:15:53.309Z,3.03
2017-12-26T18:18:22.165Z,2.33
2017-12-26T18:20:51.021Z,2.67
2017-12-26T18:23:19.897Z,3.40
2017-12-26T18:25:48.735Z,2.67
2017-12-26T18:28:17.563Z,4.20
2017-12-26T18:30:46.452Z,2.47
2017-12-26T18:33:15.284Z,3.07
2017-12-26T18:35:44.189Z,6.00
2017-12-26T18:38:13.055Z,3.13
2017-12-26T18:40:41.899Z,5.03
2017-12-26T18:43:10.754Z,4.10
2017-12-26T18:45:39.642Z,2.73
2017-12-26T18:48:08.483Z,2.90
2017-12-26T18:50:37.322Z,3.47
2017-12-26T18:53:06.193Z,3.70
2017-12-26T18:55:35.035Z,2.80
2017-12-26T18:58:03.906Z,3.83
2017-12-26T19:00:32.797Z,4.50
2017-12-26T19:03:01.631Z,3.20
2017-12-26T19:05:30.503Z,4.60
2017-12-26T19:07:59.381Z,3.40
2017-12-26T19:10:28.215Z,3.63
2017-12-26T19:12:57.043Z,3.27
2017-12-26T19:15:25.936Z,3.73
2017-12-26T19:17:54.801Z,3.47
2017-12-26T19:20:23.647Z,3.00
2017-12-26T19:22:52.531Z,5.90
2017-12-26T19:25:21.391Z,3.50
2017-12-26T19:27:50.241Z,3.70
2017-12-26T19:30:19.189Z,3.33
2017-12-26T19:32:48.039Z,3.00
2017-12-26T19:35:16.931Z,3.23
2017-12-26T19:37:45.817Z,3.20
2017-12-26T19:40:14.689Z,2.93
2017-12-26T19:42:44.625Z,3.30
2017-12-26T19:45:13.557Z,3.57
2017-12-26T19:47:43.404Z,3.40
2017-12-26T19:50:12.253Z,3.77
2017-12-26T19:52:41.097Z,4.17
2017-12-26T19:55:09.948Z,3.50
2017-12-26T19:57:38.775Z,4.40
2017-12-26T20:00:07.663Z,3.10
2017-12-26T20:02:36.910Z,3.50
2017-12-26T20:05:05.750Z,5.77
2017-12-26T20:07:34.645Z,4.60
2017-12-26T20:10:03.550Z,5.00
2017-12-26T20:12:32.384Z,4.00
2017-12-26T20:15:01.246Z,4.07
2017-12-26T20:17:30.106Z,6.43
2017-12-26T20:19:59.866Z,3.13
2017-12-26T20:22:28.734Z,3.73
2017-12-26T20:24:57.616Z,3.80
2017-12-26T20:27:26.725Z,3.97
2017-12-26T20:29:58.379Z,3.47
2017-12-26T20:32:27.214Z,3.70
2017-12-26T20:34:56.538Z,4.07
2017-12-26T20:37:25.432Z,3.53
2017-12-26T20:39:54.264Z,3.73
2017-12-26T20:42:23.093Z,3.40
2017-12-26T20:44:51.952Z,3.50
2017-12-26T20:47:20.794Z,3.70
2017-12-26T20:49:49.665Z,3.67
2017-12-26T20:52:18.565Z,10.33
2017-12-26T20:54:47.890Z,5.87
2017-12-26T20:57:16.942Z,4.77
2017-12-26T20:59:45.836Z,4.87
2017-12-26T21:02:15.571Z,3.80
2017-12-26T21:04:45.034Z,4.40
2017-12-26T21:07:13.919Z,2.93
2017-12-26T21:09:43.414Z,4.13
2017-12-26T21:12:12.347Z,3.83
2017-12-26T21:14:42.213Z,2.93
2017-12-26T21:17:11.056Z,3.60
2017-12-26T21:19:39.895Z,3.93
2017-12-26T21:22:08.756Z,4.80
2017-12-26T21:24:37.598Z,4.23
2017-12-26T21:27:06.451Z,4.17
2017-12-26T21:29:35.341Z,5.13
2017-12-26T21:32:04.208Z,3.17
2017-12-26T21:34:33.360Z,4.40
2017-12-26T21:37:02.291Z,3.97
2017-12-26T21:39:31.148Z,3.07
2017-12-26T21:42:00.026Z,3.40
2017-12-26T21:44:28.892Z,3.00
2017-12-26T21:46:57.721Z,3.83
2017-12-26T21:49:26.605Z,3.13
2017-12-26T21:51:55.475Z,2.50
2017-12-26T21:54:24.319Z,2.70
2017-12-26T21:56:53.164Z,3.70
2017-12-26T21:59:22.383Z,3.13
2017-12-26T22:01:52.238Z,2.50
2017-12-26T22:04:21.081Z,2.97
2017-12-26T22:06:49.943Z,2.20
2017-12-26T22:09:18.866Z,2.60
2017-12-26T22:11:48.437Z,2.60
2017-12-26T22:14:17.347Z,2.67
2017-12-26T22:16:46.219Z,2.70
2017-12-26T22:19:15.051Z,2.20
2017-12-26T22:21:43.913Z,2.83
2017-12-26T22:24:12.756Z,2.73
2017-12-26T22:26:42.119Z,2.67
2017-12-26T22:29:10.967Z,2.90
2017-12-26T22:31:39.831Z,2.20
2017-12-26T22:34:08.799Z,2.33
2017-12-26T22:36:37.667Z,2.27
2017-12-26T22:39:06.511Z,2.33
2017-12-26T22:41:35.371Z,2.33
2017-12-26T22:44:04.329Z,2.30
2017-12-26T22:46:33.240Z,2.57
2017-12-26T22:49:02.095Z,2.47
2017-12-26T22:51:31.146Z,1.97
2017-12-26T22:53:59.993Z,2.83
2017-12-26T22:56:28.938Z,2.50
2017-12-26T22:58:57.791Z,2.37
2017-12-26T23:01:26.635Z,2.40
2017-12-26T23:03:55.471Z,2.57
2017-12-26T23:06:24.331Z,2.30
2017-12-26T23:08:53.213Z,2.00
2017-12-26T23:11:22.131Z,2.43
2017-12-26T23:13:56.763Z,2.17
2017-12-26T23:16:31.340Z,2.40
2017-12-26T23:19:00.222Z,1.93
2017-12-26T23:21:29.187Z,2.67
2017-12-26T23:24:03.931Z,1.70
2017-12-26T23:26:40.220Z,2.63
2017-12-26T23:29:14.911Z,1.53
2017-12-26T23:31:49.517Z,1.97
2017-12-26T23:34:24.234Z,2.10
2017-12-26T23:36:58.781Z,2.00
2017-12-26T23:39:33.403Z,1.97
2017-12-26T23:42:09.241Z,2.10
2017-12-26T23:44:44.143Z,2.00
2017-12-26T23:47:27.907Z,1.47
2017-12-26T23:50:02.595Z,1.70
2017-12-26T23:52:37.259Z,1.77
2017-12-26T23:55:12.212Z,2.17
2017-12-26T23:57:46.879Z,2.20
